Time;durP1;ratioP1;P1;durP2;ratioP2;P2;SDS_P1;SDS_P2;PMS_P1;PMS_P2;Temp;Humidity;BMP_temperature;BMP_pressure;BME280_temperature;BME280_humidity;BME280_pressure;Samples;Min_cycle;Max_cycle;Signal;HPM_P1;HPM_P2
2023/05/29 00:00:06;;;;;;;17.90;10.07;;;14.10;99.90;;;;;;4951783;28;20207;-62
2023/05/29 00:02:35;;;;;;;18.90;10.40;;;14.00;99.90;;;;;;4953161;28;20219;-62
2023/05/29 00:05:03;;;;;;;16.90;10.50;;;14.00;99.90;;;;;;4951261;28;20233;-62
2023/05/29 00:07:33;;;;;;;22.67;11.37;;;14.00;99.90;;;;;;4950839;28;20621;-62
2023/05/29 00:10:01;;;;;;;25.00;11.33;;;13.90;99.90;;;;;;4947343;28;20240;-62
2023/05/29 00:12:31;;;;;;;21.07;11.17;;;13.90;99.90;;;;;;4951529;28;20196;-62
2023/05/29 00:15:00;;;;;;;21.83;10.50;;;13.90;99.90;;;;;;4952094;28;20204;-62
2023/05/29 00:17:29;;;;;;;21.63;11.20;;;13.80;99.90;;;;;;4952601;28;20220;-62
2023/05/29 00:19:58;;;;;;;20.33;10.60;;;13.80;99.90;;;;;;4951274;28;20583;-62
2023/05/29 00:22:27;;;;;;;22.17;10.43;;;13.70;99.90;;;;;;4952737;28;20235;-62
2023/05/29 00:24:55;;;;;;;22.43;11.00;;;13.70;99.90;;;;;;4951990;28;20255;-62
2023/05/29 00:27:23;;;;;;;21.17;10.67;;;13.70;99.90;;;;;;4950516;29;20207;-62
2023/05/29 00:29:53;;;;;;;23.07;10.67;;;13.60;99.90;;;;;;4947230;28;20641;-62
2023/05/29 00:32:21;;;;;;;16.17;9.97;;;13.60;99.90;;;;;;4950461;28;20227;-62
2023/05/29 00:34:50;;;;;;;21.13;11.07;;;13.60;99.90;;;;;;4953566;28;20267;-62
2023/05/29 00:37:21;;;;;;;20.23;10.97;;;13.50;99.90;;;;;;4945626;28;20220;-62
2023/05/29 00:39:49;;;;;;;22.53;10.00;;;13.50;99.90;;;;;;4951291;28;20231;-63
2023/05/29 00:42:18;;;;;;;17.10;9.93;;;13.40;99.90;;;;;;4951623;28;20552;-62
2023/05/29 00:44:46;;;;;;;20.47;10.00;;;13.40;99.90;;;;;;4950003;28;20743;-62
2023/05/29 00:47:16;;;;;;;17.57;10.90;;;13.40;99.90;;;;;;4950114;28;20223;-62
2023/05/29 00:49:45;;;;;;;16.57;10.53;;;13.40;99.90;;;;;;4952366;28;20220;-62
2023/05/29 00:52:14;;;;;;;21.33;10.50;;;13.30;99.90;;;;;;4948162;28;20591;-62
2023/05/29 00:54:45;;;;;;;16.80;10.10;;;13.30;99.90;;;;;;4951097;28;20203;-61
2023/05/29 00:57:14;;;;;;;15.97;9.67;;;13.20;99.90;;;;;;4952832;28;20200;-62
2023/05/29 00:59:43;;;;;;;17.13;10.40;;;13.20;99.90;;;;;;4954159;28;20239;-61
2023/05/29 01:02:11;;;;;;;18.30;10.63;;;13.20;99.90;;;;;;4952620;28;20212;-62
2023/05/29 01:04:41;;;;;;;15.83;10.40;;;13.20;99.90;;;;;;4950206;28;20232;-62
2023/05/29 01:07:10;;;;;;;19.57;10.10;;;13.20;99.90;;;;;;4950847;28;20263;-61
2023/05/29 01:09:40;;;;;;;16.77;9.73;;;13.20;99.90;;;;;;4948835;28;20204;-61
2023/05/29 01:12:17;;;;;;;17.23;9.93;;;13.10;99.90;;;;;;4951639;29;20207;-62
2023/05/29 01:14:58;;;;;;;15.73;9.37;;;13.10;99.90;;;;;;4951979;28;20230;-62
2023/05/29 01:17:39;;;;;;;19.37;9.83;;;13.10;99.90;;;;;;4952320;28;20246;-62
2023/05/29 01:20:20;;;;;;;20.10;9.27;;;13.00;99.90;;;;;;4953377;28;20224;-62
2023/05/29 01:23:36;;;;;;;14.13;9.10;;;13.00;99.90;;;;;;4946893;28;20682;-61
2023/05/29 01:26:20;;;;;;;19.23;9.17;;;13.00;99.90;;;;;;4927373;28;20223;-61
2023/05/29 01:28:52;;;;;;;15.93;8.67;;;13.00;99.90;;;;;;4950450;28;20594;-61
2023/05/29 01:31:24;;;;;;;14.17;9.30;;;12.90;99.90;;;;;;4949644;28;20212;-62
2023/05/29 01:33:54;;;;;;;17.70;9.17;;;12.90;99.90;;;;;;4950010;28;20239;-61
2023/05/29 01:36:22;;;;;;;15.63;8.30;;;12.80;99.90;;;;;;4948202;28;20668;-61
2023/05/29 01:38:52;;;;;;;21.90;9.03;;;12.80;99.90;;;;;;4954355;28;20667;-62
2023/05/29 01:41:22;;;;;;;13.63;8.50;;;12.80;99.90;;;;;;4947014;28;20216;-62
2023/05/29 01:43:52;;;;;;;11.23;7.77;;;12.80;99.90;;;;;;4949772;28;20231;-62
2023/05/29 01:46:22;;;;;;;17.63;8.27;;;12.70;99.90;;;;;;4949951;28;20232;-61
2023/05/29 01:48:51;;;;;;;15.47;8.13;;;12.70;99.90;;;;;;4950155;28;20236;-61
2023/05/29 01:51:19;;;;;;;17.03;7.63;;;12.70;99.90;;;;;;4949991;28;20244;-61
2023/05/29 01:53:48;;;;;;;13.73;6.60;;;12.60;99.90;;;;;;4946102;28;20627;-62
2023/05/29 01:56:16;;;;;;;14.70;6.90;;;12.60;99.90;;;;;;4945585;28;20255;-62
2023/05/29 01:58:46;;;;;;;16.30;6.97;;;12.60;99.90;;;;;;4946257;28;20228;-62
2023/05/29 02:01:16;;;;;;;14.63;6.97;;;12.60;99.90;;;;;;4950127;28;20228;-61
2023/05/29 02:03:44;;;;;;;14.37;6.33;;;12.50;99.90;;;;;;4947130;28;20196;-61
2023/05/29 02:06:12;;;;;;;17.67;6.57;;;12.50;99.90;;;;;;4950675;29;20207;-61
2023/05/29 02:08:41;;;;;;;15.73;6.47;;;12.40;99.90;;;;;;4947140;28;20216;-62
2023/05/29 02:11:09;;;;;;;15.13;6.47;;;12.40;99.90;;;;;;4945141;28;20289;-61
2023/05/29 02:13:39;;;;;;;12.90;5.50;;;12.30;99.90;;;;;;4949850;28;20224;-61
2023/05/29 02:16:07;;;;;;;13.77;5.80;;;12.30;99.90;;;;;;4944008;28;20224;-61
2023/05/29 02:18:37;;;;;;;15.13;6.07;;;12.20;99.90;;;;;;4946844;28;20219;-63
2023/05/29 02:21:05;;;;;;;20.13;6.07;;;12.20;99.90;;;;;;4953397;28;20662;-61
2023/05/29 02:23:33;;;;;;;17.53;5.53;;;12.20;99.90;;;;;;4952394;28;20227;-62
2023/05/29 02:26:02;;;;;;;17.10;5.77;;;12.10;99.90;;;;;;4951632;28;20228;-61
2023/05/29 02:28:30;;;;;;;17.70;5.57;;;12.10;99.90;;;;;;4948226;28;20220;-61
2023/05/29 02:30:58;;;;;;;12.10;4.80;;;12.00;99.90;;;;;;4949720;28;20232;-61
2023/05/29 02:33:27;;;;;;;10.23;5.00;;;12.00;99.90;;;;;;4952060;28;20200;-61
2023/05/29 02:35:56;;;;;;;17.83;5.33;;;12.00;99.90;;;;;;4949225;29;20259;-61
2023/05/29 02:38:26;;;;;;;16.97;5.20;;;12.00;99.90;;;;;;4951292;28;20766;-61
2023/05/29 02:40:54;;;;;;;10.53;4.47;;;11.90;99.90;;;;;;4951794;28;20220;-61
2023/05/29 02:43:24;;;;;;;18.67;5.33;;;11.90;99.90;;;;;;4951602;28;20220;-61
2023/05/29 02:45:52;;;;;;;14.33;4.43;;;11.90;99.90;;;;;;4949739;28;20335;-61
2023/05/29 02:48:20;;;;;;;10.37;4.90;;;11.80;99.90;;;;;;4945847;29;20784;-61
2023/05/29 02:50:49;;;;;;;13.63;4.50;;;11.80;99.90;;;;;;4950442;28;20227;-62
2023/05/29 02:53:19;;;;;;;16.40;4.93;;;11.80;99.90;;;;;;4951067;28;20236;-62
2023/05/29 02:55:48;;;;;;;10.23;4.17;;;11.70;99.90;;;;;;4950374;28;20309;-62
2023/05/29 02:58:17;;;;;;;8.97;4.20;;;11.70;99.90;;;;;;4946818;28;20225;-61
2023/05/29 03:00:46;;;;;;;10.17;5.07;;;11.70;99.90;;;;;;4951563;28;20222;-61
2023/05/29 03:03:14;;;;;;;16.10;4.83;;;11.70;99.90;;;;;;4948869;29;20200;-62
2023/05/29 03:05:43;;;;;;;15.77;4.70;;;11.70;99.90;;;;;;4950763;28;20279;-61
2023/05/29 03:08:12;;;;;;;12.50;4.77;;;11.60;99.90;;;;;;4951129;28;20227;-61
2023/05/29 03:10:43;;;;;;;15.43;4.47;;;11.60;99.90;;;;;;4949379;28;20226;-61
2023/05/29 03:13:12;;;;;;;14.57;4.90;;;11.50;99.90;;;;;;4949451;28;20232;-61
2023/05/29 03:15:40;;;;;;;9.33;4.03;;;11.50;99.90;;;;;;4949064;28;20188;-61
2023/05/29 03:18:08;;;;;;;17.03;4.83;;;11.50;99.90;;;;;;4943749;28;20224;-62
2023/05/29 03:20:37;;;;;;;15.33;4.53;;;11.40;99.90;;;;;;4950770;28;20223;-61
2023/05/29 03:23:05;;;;;;;10.43;4.50;;;11.40;99.90;;;;;;4946921;28;20236;-62
2023/05/29 03:25:34;;;;;;;16.90;4.83;;;11.40;99.90;;;;;;4948261;28;20211;-61
2023/05/29 03:28:04;;;;;;;11.93;4.27;;;11.40;99.90;;;;;;4947602;28;20598;-61
2023/05/29 03:30:32;;;;;;;8.40;4.00;;;11.40;99.90;;;;;;4949957;28;20315;-61
2023/05/29 03:33:03;;;;;;;14.23;4.53;;;11.30;99.90;;;;;;4948986;28;20702;-61
2023/05/29 03:35:32;;;;;;;13.87;4.67;;;11.30;99.90;;;;;;4950167;28;20224;-62
2023/05/29 03:38:00;;;;;;;22.27;4.77;;;11.30;99.90;;;;;;4945137;28;20228;-61
2023/05/29 03:40:28;;;;;;;14.03;4.07;;;11.20;99.90;;;;;;4951524;28;20216;-61
2023/05/29 03:42:57;;;;;;;11.17;4.10;;;11.20;99.90;;;;;;4949495;28;20257;-61
2023/05/29 03:45:26;;;;;;;12.43;4.43;;;11.20;99.90;;;;;;4951273;28;20220;-61
2023/05/29 03:47:54;;;;;;;10.87;3.77;;;11.10;99.90;;;;;;4950138;28;20791;-62
2023/05/29 03:50:23;;;;;;;13.87;4.50;;;11.10;99.90;;;;;;4947096;28;20231;-62
2023/05/29 03:52:51;;;;;;;13.87;4.23;;;11.20;99.90;;;;;;4943999;28;20706;-61
2023/05/29 03:55:19;;;;;;;19.37;4.50;;;11.20;99.90;;;;;;4950902;28;20752;-62
2023/05/29 03:57:48;;;;;;;9.37;4.20;;;11.20;99.90;;;;;;4950698;28;20232;-61
2023/05/29 04:00:18;;;;;;;18.00;4.10;;;11.20;99.90;;;;;;4947751;28;20204;-61
2023/05/29 04:02:47;;;;;;;15.50;3.97;;;11.10;99.90;;;;;;4949201;28;20275;-61
2023/05/29 04:05:16;;;;;;;13.77;3.83;;;11.10;99.90;;;;;;4949256;28;20278;-61
2023/05/29 04:07:44;;;;;;;11.90;3.77;;;11.10;99.90;;;;;;4946342;28;20227;-61
2023/05/29 04:10:13;;;;;;;11.40;4.00;;;11.10;99.90;;;;;;4946581;28;20250;-61
2023/05/29 04:12:41;;;;;;;13.73;4.43;;;11.10;99.90;;;;;;4949401;28;20220;-61
2023/05/29 04:15:10;;;;;;;12.70;4.10;;;11.10;99.90;;;;;;4947625;28;20204;-62
2023/05/29 04:17:38;;;;;;;9.33;3.97;;;11.10;99.90;;;;;;4944838;28;20307;-61
2023/05/29 04:20:09;;;;;;;17.50;3.70;;;11.10;99.90;;;;;;4944321;28;20238;-61
2023/05/29 04:22:38;;;;;;;14.27;4.50;;;11.10;99.90;;;;;;4946859;28;20220;-61
2023/05/29 04:25:07;;;;;;;14.53;4.10;;;11.10;99.90;;;;;;4947591;28;20238;-61
2023/05/29 04:27:37;;;;;;;13.03;4.13;;;11.20;99.90;;;;;;4948404;28;20192;-61
2023/05/29 04:30:06;;;;;;;13.60;4.17;;;11.10;99.90;;;;;;4949469;28;20251;-61
2023/05/29 04:32:36;;;;;;;14.33;4.37;;;11.10;99.90;;;;;;4952433;28;20577;-62
2023/05/29 04:35:05;;;;;;;13.03;4.00;;;11.20;99.90;;;;;;4952093;28;20718;-61
2023/05/29 04:37:37;;;;;;;13.00;3.90;;;11.20;99.90;;;;;;4950053;28;20220;-61
2023/05/29 04:40:09;;;;;;;11.40;4.40;;;11.20;99.90;;;;;;4948770;28;20236;-62
2023/05/29 04:42:39;;;;;;;13.73;3.93;;;11.20;99.90;;;;;;4950434;28;20210;-62
2023/05/29 04:45:10;;;;;;;15.20;4.03;;;11.20;99.90;;;;;;4950153;28;20262;-61
2023/05/29 04:47:43;;;;;;;15.33;4.00;;;11.30;99.90;;;;;;4948053;28;20262;-61
2023/05/29 04:50:12;;;;;;;15.00;3.90;;;11.30;99.90;;;;;;4952424;28;20235;-61
2023/05/29 04:52:41;;;;;;;15.83;4.13;;;11.30;99.90;;;;;;4948332;28;20232;-61
2023/05/29 04:55:11;;;;;;;18.97;3.97;;;11.40;99.90;;;;;;4950527;28;20238;-61
2023/05/29 04:57:40;;;;;;;14.77;4.67;;;11.40;99.90;;;;;;4950035;28;20215;-61
2023/05/29 05:00:13;;;;;;;16.67;4.37;;;11.50;99.90;;;;;;4949638;28;20200;-62
2023/05/29 05:02:43;;;;;;;12.50;3.77;;;11.50;99.90;;;;;;4946970;28;20765;-61
2023/05/29 05:05:12;;;;;;;12.80;3.77;;;11.50;99.90;;;;;;4951654;28;20234;-61
2023/05/29 05:07:42;;;;;;;10.83;3.90;;;11.60;99.90;;;;;;4952338;28;20223;-62
2023/05/29 05:10:11;;;;;;;16.17;4.03;;;11.60;99.90;;;;;;4950497;28;20244;-61
2023/05/29 05:12:39;;;;;;;15.47;3.70;;;11.60;99.90;;;;;;4948655;28;20377;-61
2023/05/29 05:15:09;;;;;;;21.20;4.30;;;11.70;99.90;;;;;;4953612;28;20211;-61
2023/05/29 05:17:37;;;;;;;19.73;4.10;;;11.70;99.90;;;;;;4947741;28;20232;-61
2023/05/29 05:20:08;;;;;;;18.10;4.03;;;11.80;99.90;;;;;;4953032;28;20315;-61
2023/05/29 05:22:36;;;;;;;17.27;4.20;;;11.80;99.90;;;;;;4952640;28;20948;-61
2023/05/29 05:25:07;;;;;;;15.07;3.40;;;11.90;99.90;;;;;;4945685;28;21130;-61
2023/05/29 05:27:35;;;;;;;12.53;4.13;;;12.00;99.90;;;;;;4948122;28;20578;-61
2023/05/29 05:30:03;;;;;;;14.47;3.90;;;12.00;99.90;;;;;;4949995;29;20204;-61
2023/05/29 05:32:32;;;;;;;13.77;3.47;;;12.00;99.90;;;;;;4944283;28;20225;-62
2023/05/29 05:35:00;;;;;;;12.43;3.77;;;12.10;99.90;;;;;;4950061;28;20315;-61
2023/05/29 05:37:28;;;;;;;13.27;3.77;;;12.00;99.90;;;;;;4951192;28;20240;-61
2023/05/29 05:40:00;;;;;;;15.80;3.70;;;12.00;99.90;;;;;;4949125;28;20228;-61
2023/05/29 05:42:29;;;;;;;15.50;4.40;;;12.00;99.90;;;;;;4948947;28;20647;-60
2023/05/29 05:44:57;;;;;;;13.70;3.60;;;12.10;99.90;;;;;;4946228;28;20232;-61
2023/05/29 05:47:27;;;;;;;18.07;3.87;;;12.20;99.90;;;;;;4947988;28;20303;-62
2023/05/29 05:49:55;;;;;;;15.23;3.57;;;12.30;99.90;;;;;;4949789;28;20224;-62
2023/05/29 05:52:25;;;;;;;16.17;3.77;;;12.40;99.90;;;;;;4947097;28;20223;-61
2023/05/29 05:54:54;;;;;;;12.77;3.80;;;12.50;99.90;;;;;;4952355;28;20667;-61
2023/05/29 05:57:22;;;;;;;14.20;4.07;;;12.50;99.90;;;;;;4947324;28;20690;-62
2023/05/29 05:59:51;;;;;;;20.37;4.10;;;12.60;99.90;;;;;;4948033;28;20691;-61
2023/05/29 06:02:20;;;;;;;17.97;4.00;;;12.80;99.90;;;;;;4946760;28;20220;-61
2023/05/29 06:04:48;;;;;;;14.07;3.80;;;12.90;99.90;;;;;;4949405;28;20220;-62
2023/05/29 06:07:17;;;;;;;18.43;4.27;;;12.90;99.90;;;;;;4946755;28;20327;-62
2023/05/29 06:09:46;;;;;;;17.17;3.80;;;13.00;99.90;;;;;;4942236;28;20214;-61
2023/05/29 06:12:14;;;;;;;12.40;3.90;;;13.00;99.90;;;;;;4948989;28;20587;-61
2023/05/29 06:14:42;;;;;;;18.63;3.70;;;13.00;99.90;;;;;;4950554;28;20231;-61
2023/05/29 06:17:12;;;;;;;7.93;3.47;;;13.10;99.90;;;;;;4948310;28;20254;-61
2023/05/29 06:19:41;;;;;;;14.73;3.60;;;13.20;99.90;;;;;;4949622;28;20694;-61
2023/05/29 06:22:09;;;;;;;14.33;3.50;;;13.20;99.90;;;;;;4950381;28;20231;-61
2023/05/29 06:24:37;;;;;;;13.93;3.63;;;13.30;99.90;;;;;;4946234;28;20642;-61
2023/05/29 06:27:06;;;;;;;11.93;3.50;;;13.40;99.90;;;;;;4948546;29;20232;-62
2023/05/29 06:29:35;;;;;;;14.00;3.67;;;13.50;99.90;;;;;;4950499;28;20675;-61
2023/05/29 06:32:03;;;;;;;10.63;3.53;;;13.50;99.90;;;;;;4947743;28;20231;-62
2023/05/29 06:34:33;;;;;;;12.40;3.03;;;13.60;99.90;;;;;;4944938;28;20718;-61
2023/05/29 06:37:01;;;;;;;12.73;3.00;;;13.70;99.90;;;;;;4948650;28;20572;-62
2023/05/29 06:39:30;;;;;;;7.97;3.17;;;13.70;99.90;;;;;;4952563;28;20196;-61
2023/05/29 06:41:58;;;;;;;14.10;3.47;;;13.80;99.90;;;;;;4945841;28;20583;-62
2023/05/29 06:44:26;;;;;;;18.03;3.40;;;13.90;99.90;;;;;;4948904;28;20235;-62
2023/05/29 06:46:55;;;;;;;8.40;3.10;;;14.10;99.90;;;;;;4941954;28;20227;-61
2023/05/29 06:49:23;;;;;;;9.30;3.27;;;14.10;99.90;;;;;;4945217;28;20355;-61
2023/05/29 06:51:53;;;;;;;14.27;3.00;;;14.20;99.90;;;;;;4951411;28;20228;-61
2023/05/29 06:54:24;;;;;;;15.43;3.77;;;14.30;99.90;;;;;;4951678;28;20195;-62
2023/05/29 06:56:53;;;;;;;15.07;3.30;;;14.30;99.90;;;;;;4951039;28;20502;-61
2023/05/29 06:59:37;;;;;;;13.30;3.23;;;14.30;99.90;;;;;;4950335;28;20725;-62
2023/05/29 07:02:06;;;;;;;10.27;3.80;;;14.40;99.90;;;;;;4946101;28;20232;-61
2023/05/29 07:04:34;;;;;;;9.47;3.20;;;14.50;99.90;;;;;;4946341;28;20586;-62
2023/05/29 07:07:03;;;;;;;7.60;2.83;;;14.70;99.90;;;;;;4948402;28;20232;-61
2023/05/29 07:09:32;;;;;;;12.40;2.83;;;14.80;99.90;;;;;;4950167;28;20204;-61
2023/05/29 07:12:00;;;;;;;10.17;3.73;;;15.00;99.90;;;;;;4950496;28;20211;-62
2023/05/29 07:14:29;;;;;;;18.83;3.57;;;15.20;99.90;;;;;;4950145;28;20226;-62
2023/05/29 07:16:57;;;;;;;11.50;3.07;;;15.20;99.90;;;;;;4947996;28;20682;-62
2023/05/29 07:19:26;;;;;;;10.60;3.30;;;15.30;99.90;;;;;;4945185;28;20224;-61
2023/05/29 07:21:54;;;;;;;11.50;3.57;;;15.30;99.90;;;;;;4949811;28;20563;-62
2023/05/29 07:24:24;;;;;;;10.80;2.83;;;15.30;99.90;;;;;;4951014;28;20193;-62
2023/05/29 07:26:52;;;;;;;13.90;2.90;;;15.30;99.90;;;;;;4949707;28;20220;-62
2023/05/29 07:29:22;;;;;;;15.67;3.43;;;15.40;99.90;;;;;;4950874;28;20221;-61
2023/05/29 07:31:52;;;;;;;12.27;2.90;;;15.40;99.90;;;;;;4949208;28;20227;-61
2023/05/29 07:34:21;;;;;;;10.80;3.00;;;15.40;99.90;;;;;;4948933;28;20224;-62
2023/05/29 07:37:00;;;;;;;10.13;3.10;;;15.40;99.90;;;;;;4949496;28;20238;-61
2023/05/29 07:39:30;;;;;;;10.70;2.70;;;15.60;99.90;;;;;;4946790;28;20206;-61
2023/05/29 07:41:58;;;;;;;9.87;3.47;;;15.70;99.90;;;;;;4953568;28;20219;-61
2023/05/29 07:44:27;;;;;;;11.13;3.33;;;15.90;99.90;;;;;;4950947;28;20684;-62
2023/05/29 07:46:55;;;;;;;8.73;2.83;;;16.00;99.90;;;;;;4951951;28;20220;-62
2023/05/29 07:49:24;;;;;;;9.50;3.10;;;16.10;99.90;;;;;;4947905;28;20220;-61
2023/05/29 07:51:53;;;;;;;9.83;3.23;;;16.10;99.90;;;;;;4949601;28;20293;-61
2023/05/29 07:54:22;;;;;;;11.27;3.23;;;16.10;99.90;;;;;;4949880;29;20563;-62
2023/05/29 07:56:52;;;;;;;10.37;3.20;;;16.20;99.90;;;;;;4949582;28;20248;-62
2023/05/29 07:59:21;;;;;;;10.97;3.70;;;16.40;99.90;;;;;;4945978;28;20224;-62
2023/05/29 08:01:49;;;;;;;8.10;2.73;;;16.50;99.90;;;;;;4945657;28;20220;-61
2023/05/29 08:04:18;;;;;;;9.30;3.07;;;16.60;99.90;;;;;;4947667;28;20230;-61
2023/05/29 08:06:46;;;;;;;9.47;2.87;;;16.60;99.90;;;;;;4941652;28;20371;-62
2023/05/29 08:09:14;;;;;;;8.07;2.80;;;16.60;99.90;;;;;;4952980;28;20192;-62
2023/05/29 08:11:45;;;;;;;6.93;2.60;;;16.60;99.90;;;;;;4951165;28;20231;-62
2023/05/29 08:14:15;;;;;;;10.20;3.03;;;16.70;99.90;;;;;;4949923;28;20634;-62
2023/05/29 08:16:44;;;;;;;13.73;3.20;;;17.10;99.90;;;;;;4951004;28;20216;-62
2023/05/29 08:19:12;;;;;;;11.03;2.97;;;17.30;99.90;;;;;;4951198;28;20563;-62
2023/05/29 08:21:40;;;;;;;14.70;3.17;;;17.50;99.90;;;;;;4952933;28;20267;-62
2023/05/29 08:24:08;;;;;;;7.03;2.60;;;17.50;99.90;;;;;;4955577;28;20204;-62
2023/05/29 08:26:37;;;;;;;7.40;2.40;;;17.70;99.90;;;;;;4953806;28;20320;-62
2023/05/29 08:29:05;;;;;;;9.37;2.70;;;17.80;99.90;;;;;;4952731;28;20219;-62
2023/05/29 08:31:35;;;;;;;14.23;3.37;;;17.90;99.90;;;;;;4952205;28;20286;-62
2023/05/29 08:34:04;;;;;;;8.43;2.90;;;18.00;99.90;;;;;;4946289;28;20244;-62
2023/05/29 08:36:32;;;;;;;8.07;2.67;;;18.00;99.90;;;;;;4951271;28;20678;-61
2023/05/29 08:39:00;;;;;;;9.93;3.27;;;18.10;99.90;;;;;;4954182;28;21384;-62
2023/05/29 08:41:39;;;;;;;10.97;3.23;;;18.40;99.90;;;;;;4945659;28;20398;-62
2023/05/29 08:44:14;;;;;;;14.07;2.87;;;18.60;99.90;;;;;;4951969;28;20967;-62
2023/05/29 08:46:45;;;;;;;8.20;3.00;;;18.60;99.90;;;;;;4944815;28;20239;-62
2023/05/29 08:49:17;;;;;;;6.40;2.53;;;18.40;99.90;;;;;;4947795;28;20232;-61
2023/05/29 08:51:50;;;;;;;8.90;2.87;;;18.70;99.90;;;;;;4947236;28;20279;-61
2023/05/29 08:54:19;;;;;;;13.53;3.03;;;18.80;99.90;;;;;;4949068;29;20215;-62
2023/05/29 08:56:47;;;;;;;7.03;2.80;;;18.90;99.90;;;;;;4950331;28;20571;-62
2023/05/29 08:59:17;;;;;;;7.77;3.10;;;19.20;99.90;;;;;;4948302;28;20568;-62
2023/05/29 09:01:47;;;;;;;6.77;2.37;;;19.40;99.90;;;;;;4945312;28;20611;-62
2023/05/29 09:04:16;;;;;;;9.10;2.67;;;19.70;99.90;;;;;;4947977;28;20293;-63
2023/05/29 09:06:48;;;;;;;7.77;2.93;;;19.80;99.90;;;;;;4952406;28;20197;-62
2023/05/29 09:09:17;;;;;;;6.70;2.70;;;20.00;99.90;;;;;;4953529;28;20206;-62
2023/05/29 09:11:45;;;;;;;7.83;3.00;;;20.00;99.90;;;;;;4947960;28;20248;-62
2023/05/29 09:14:36;;;;;;;6.33;2.87;;;19.90;99.90;;;;;;4946412;28;20631;-62
2023/05/29 09:17:06;;;;;;;8.87;2.90;;;20.30;99.90;;;;;;4947983;28;20278;-63
2023/05/29 09:19:35;;;;;;;13.83;3.00;;;20.30;99.90;;;;;;4942270;28;20232;-62
2023/05/29 09:22:07;;;;;;;11.27;2.90;;;20.10;99.90;;;;;;4941114;28;20240;-62
2023/05/29 09:24:37;;;;;;;6.93;2.47;;;20.40;99.90;;;;;;4943134;28;20297;-61
2023/05/29 09:27:07;;;;;;;11.80;3.10;;;20.60;99.90;;;;;;4944777;28;20203;-62
2023/05/29 09:29:39;;;;;;;6.93;2.70;;;20.80;99.90;;;;;;4941140;28;20611;-62
2023/05/29 09:32:10;;;;;;;12.63;2.93;;;20.80;99.90;;;;;;4944730;28;20756;-62
2023/05/29 09:34:39;;;;;;;8.83;3.47;;;21.00;99.90;;;;;;4942412;28;20227;-62
2023/05/29 09:37:09;;;;;;;7.50;3.03;;;21.00;99.90;;;;;;4938404;28;20577;-62
2023/05/29 09:39:46;;;;;;;7.33;3.00;;;21.10;99.90;;;;;;4946526;28;20297;-61
2023/05/29 09:42:16;;;;;;;8.10;2.80;;;21.10;99.90;;;;;;4950023;28;20200;-61
2023/05/29 09:44:46;;;;;;;8.63;3.00;;;21.60;99.90;;;;;;4951433;28;20582;-61
2023/05/29 09:47:18;;;;;;;8.67;2.97;;;21.70;99.90;;;;;;4952562;28;20595;-62
2023/05/29 09:49:47;;;;;;;12.33;3.57;;;21.60;99.90;;;;;;4952108;28;20318;-62
2023/05/29 09:52:16;;;;;;;8.50;3.23;;;21.70;99.90;;;;;;4951276;28;20224;-62
2023/05/29 09:54:46;;;;;;;11.83;3.40;;;22.10;99.90;;;;;;4947961;28;20205;-61
2023/05/29 09:57:15;;;;;;;6.70;2.93;;;22.90;99.90;;;;;;4949729;29;20196;-61
2023/05/29 09:59:46;;;;;;;12.43;3.37;;;22.70;99.90;;;;;;4946678;28;20227;-62
2023/05/29 10:02:16;;;;;;;9.17;2.80;;;22.70;99.90;;;;;;4947105;28;20310;-62
2023/05/29 10:04:45;;;;;;;7.87;3.13;;;22.90;99.90;;;;;;4943664;28;20212;-62
2023/05/29 10:07:21;;;;;;;11.00;3.13;;;22.90;99.90;;;;;;4946683;28;20234;-61
2023/05/29 10:09:55;;;;;;;8.10;3.03;;;22.80;99.90;;;;;;4947563;28;20227;-62
2023/05/29 10:12:24;;;;;;;7.97;3.27;;;22.60;99.90;;;;;;4943967;29;20200;-62
2023/05/29 10:14:57;;;;;;;8.77;2.67;;;22.60;99.90;;;;;;4944590;28;20579;-62
2023/05/29 10:17:32;;;;;;;10.87;3.13;;;22.60;99.90;;;;;;4944450;28;20220;-62
2023/05/29 10:20:03;;;;;;;8.37;2.83;;;22.70;99.90;;;;;;4944015;28;20740;-61
2023/05/29 10:22:33;;;;;;;4.27;2.87;;;22.80;99.90;;;;;;4946958;28;20279;-61
2023/05/29 10:25:03;;;;;;;6.50;3.03;;;22.60;99.90;;;;;;4945682;28;20811;-62
2023/05/29 10:27:32;;;;;;;6.30;2.80;;;22.20;99.90;;;;;;4944119;28;20201;-62
2023/05/29 10:30:08;;;;;;;6.00;2.80;;;22.50;99.90;;;;;;4941699;28;20204;-61
2023/05/29 10:32:48;;;;;;;6.90;3.00;;;22.60;99.90;;;;;;4948196;28;20258;-61
2023/05/29 10:35:26;;;;;;;9.50;2.90;;;23.10;99.90;;;;;;4947256;28;20255;-61
2023/05/29 10:38:00;;;;;;;7.00;3.00;;;23.40;99.90;;;;;;4945995;28;20274;-62
2023/05/29 10:40:29;;;;;;;9.23;2.80;;;23.80;99.90;;;;;;4946348;28;20224;-61
2023/05/29 10:42:58;;;;;;;6.33;2.77;;;23.60;99.90;;;;;;4950292;28;20239;-62
2023/05/29 10:45:52;;;;;;;5.57;2.47;;;23.90;99.90;;;;;;4946619;28;20220;-61
2023/05/29 10:48:43;;;;;;;3.83;2.40;;;23.60;99.90;;;;;;4946870;28;20547;-63
2023/05/29 10:51:26;;;;;;;5.77;2.47;;;23.20;99.90;;;;;;4950752;28;20228;-62
2023/05/29 10:53:55;;;;;;;8.40;2.90;;;23.00;99.90;;;;;;4941146;29;20319;-62
2023/05/29 10:56:28;;;;;;;6.63;3.13;;;23.20;99.90;;;;;;4941631;28;20235;-62
2023/05/29 10:59:00;;;;;;;12.13;3.00;;;23.50;99.90;;;;;;4947595;28;20224;-62
2023/05/29 11:01:30;;;;;;;5.30;2.83;;;23.50;99.90;;;;;;4948258;28;20228;-61
2023/05/29 11:04:33;;;;;;;7.63;2.83;;;23.60;99.90;;;;;;4950810;28;20230;-62
2023/05/29 11:07:06;;;;;;;4.93;2.87;;;23.20;99.90;;;;;;4929308;28;20220;-61
2023/05/29 11:09:36;;;;;;;6.03;2.53;;;23.10;99.90;;;;;;4947720;28;20244;-60
2023/05/29 11:12:23;;;;;;;7.13;2.90;;;23.00;99.90;;;;;;4936613;28;20226;-61
2023/05/29 11:14:57;;;;;;;7.20;2.97;;;23.10;99.90;;;;;;4938595;29;20231;-61
2023/05/29 11:17:45;;;;;;;7.03;3.00;;;22.80;99.90;;;;;;4946115;28;20593;-61
2023/05/29 11:20:37;;;;;;;8.23;3.00;;;22.50;99.90;;;;;;4943690;28;20365;-61
2023/05/29 11:23:08;;;;;;;8.17;2.63;;;23.00;99.90;;;;;;4943794;28;20678;-61
2023/05/29 11:25:37;;;;;;;7.60;2.60;;;23.30;99.90;;;;;;4941258;28;20233;-61
2023/05/29 11:28:09;;;;;;;8.80;2.83;;;23.40;99.90;;;;;;4942444;28;20234;-61
2023/05/29 11:30:45;;;;;;;5.40;2.57;;;23.50;99.90;;;;;;4948064;28;20217;-61
2023/05/29 11:33:28;;;;;;;10.03;2.97;;;23.30;99.90;;;;;;4951617;29;20194;-61
2023/05/29 11:36:01;;;;;;;5.77;2.80;;;23.10;99.90;;;;;;4948784;28;20273;-61
2023/05/29 11:38:29;;;;;;;6.50;2.90;;;22.80;99.90;;;;;;4941914;28;20585;-61
2023/05/29 11:40:58;;;;;;;8.20;3.23;;;22.90;99.90;;;;;;4951138;28;20237;-61
2023/05/29 11:43:27;;;;;;;4.83;2.37;;;23.20;99.90;;;;;;4945881;28;20363;-62
2023/05/29 11:45:55;;;;;;;11.30;3.10;;;23.10;99.90;;;;;;4950095;28;20225;-61
2023/05/29 11:48:24;;;;;;;7.63;2.23;;;22.50;99.90;;;;;;4955509;28;20203;-61
2023/05/29 11:50:53;;;;;;;12.07;2.70;;;22.60;99.90;;;;;;4955148;28;20280;-61
2023/05/29 11:53:23;;;;;;;5.30;2.53;;;22.90;99.90;;;;;;4950022;28;20692;-62
2023/05/29 11:55:51;;;;;;;4.57;2.80;;;23.10;99.90;;;;;;4940793;28;20223;-61
2023/05/29 11:58:22;;;;;;;6.00;2.83;;;23.30;99.90;;;;;;4940578;28;20699;-62
2023/05/29 12:00:51;;;;;;;8.47;3.03;;;23.50;99.90;;;;;;4948443;28;20234;-61
2023/05/29 12:03:20;;;;;;;9.17;3.33;;;23.30;99.90;;;;;;4944801;29;20198;-62
2023/05/29 12:05:52;;;;;;;7.27;3.17;;;22.80;99.90;;;;;;4951960;28;20230;-61
2023/05/29 12:08:24;;;;;;;5.60;2.83;;;22.40;99.90;;;;;;4948567;28;20223;-62
2023/05/29 12:10:53;;;;;;;6.60;2.80;;;22.10;99.90;;;;;;4950509;28;20315;-61
2023/05/29 12:13:23;;;;;;;6.83;2.90;;;22.30;99.90;;;;;;4949161;28;20262;-61
2023/05/29 12:15:57;;;;;;;10.10;3.17;;;22.20;99.90;;;;;;4947314;28;20231;-61
2023/05/29 12:18:26;;;;;;;10.77;3.27;;;22.30;99.90;;;;;;4944657;28;20220;-61
2023/05/29 12:20:59;;;;;;;10.77;3.23;;;22.40;99.90;;;;;;4944716;29;20227;-61
2023/05/29 12:23:29;;;;;;;6.60;2.67;;;22.50;99.90;;;;;;4939523;28;20234;-61
2023/05/29 12:25:58;;;;;;;11.60;3.53;;;22.70;99.90;;;;;;4942858;28;20236;-61
2023/05/29 12:28:27;;;;;;;12.17;3.20;;;22.50;99.90;;;;;;4948944;28;20227;-61
2023/05/29 12:31:00;;;;;;;8.03;3.10;;;22.50;99.90;;;;;;4947510;28;20224;-61
2023/05/29 12:33:30;;;;;;;6.60;2.80;;;22.40;99.90;;;;;;4950854;28;20230;-61
2023/05/29 12:36:08;;;;;;;11.10;3.37;;;22.30;99.90;;;;;;4950030;29;20909;-61
2023/05/29 12:38:47;;;;;;;7.87;3.57;;;22.40;99.90;;;;;;4947424;28;20232;-61
2023/05/29 12:41:26;;;;;;;12.03;3.43;;;22.10;99.90;;;;;;4947928;28;20228;-62
2023/05/29 12:43:56;;;;;;;8.10;3.00;;;21.70;99.90;;;;;;4950442;28;20224;-61
2023/05/29 12:46:26;;;;;;;12.90;3.10;;;21.60;99.90;;;;;;4943033;28;20219;-61
2023/05/29 12:48:55;;;;;;;11.37;3.27;;;22.00;99.90;;;;;;4950246;28;20235;-61
2023/05/29 12:51:31;;;;;;;7.43;2.70;;;22.10;99.90;;;;;;4950518;28;20204;-61
2023/05/29 12:54:02;;;;;;;10.83;3.77;;;22.20;99.90;;;;;;4947010;29;20237;-61